This is the latest recevied weather packets stored in our database for station/object N5TDX. If no packets are shown the sender has not sent any weather packets the latest 10 day(s).
| Time | Temp. | Humidity | Pressure | Rain* | Wind** | Luminosity | Snow |
|---|---|---|---|---|---|---|---|
| 1778111291 | 18.33° C | 71% | 1011.1 hPa | 0 mm | - | - | - |
| 1778110989 | 18.33° C | 71% | 1011 hPa | 0 mm | - | - | - |
| 1778110687 | 18.33° C | 71% | 1010.9 hPa | 0 mm | - | - | - |
| 1778110382 | 18.33° C | 71% | 1010.8 hPa | 0 mm | - | - | - |
| 1778110079 | 18.33° C | 74% | 1010.8 hPa | 0 mm | - | - | - |
| 1778109774 | 17.78° C | 74% | 1010.6 hPa | 0 mm | - | - | - |
| 1778109471 | 17.78° C | 74% | 1010.6 hPa | 0 mm | - | - | - |
| 1778109170 | 17.78° C | 71% | 1010.5 hPa | 0 mm | - | - | - |
| 1778108866 | 17.78° C | 73% | 1010.6 hPa | 0 mm | - | - | - |
| 1778108563 | 17.78° C | 71% | 1010.3 hPa | 0 mm | - | - | - |
| 1778108259 | 17.78° C | 71% | 1010.5 hPa | 0 mm | - | - | - |
| 1778107957 | 17.78° C | 72% | 1010.3 hPa | 0 mm | - | - | - |
| 1778107653 | 17.78° C | 73% | 1010.5 hPa | 0 mm | - | - | - |
| 1778107350 | 17.78° C | 73% | 1010.3 hPa | 0 mm | - | - | - |
| 1778107047 | 17.22° C | 73% | 1010.8 hPa | 0 mm | - | - | - |
| 1778106742 | 17.22° C | 74% | 1010.3 hPa | 0 mm | - | - | - |
| 1778106439 | 17.22° C | 73% | 1010.9 hPa | 0 mm | - | - | - |
| 1778106135 | 16.67° C | 77% | 1011.1 hPa | 0 mm | - | - | - |
| 1778105833 | 16.67° C | 77% | 1010.8 hPa | 0 mm | - | - | - |
| 1778105531 | 16.11° C | 79% | 1010.7 hPa | 0 mm | - | - | - |
| 1778105228 | 16.11° C | 77% | 1010.2 hPa | 0 mm | - | - | - |
| 1778104922 | 16.11° C | 81% | 1010.2 hPa | 0 mm | - | - | - |
| 1778104619 | 15.56° C | 82% | 1010.3 hPa | 0 mm | - | - | - |
| 1778104314 | 16.11° C | 79% | 1010.7 hPa | 3.56 mm | - | - | - |
| 1778104012 | 16.67° C | 76% | 1010.6 hPa | 4.83 mm | - | - | - |
* Rain latest hour (hover to see other rain measurements)
** Current wind speed in m/s (hover to see current wind gust speed)